createdAt,value
2022-11-26T00:00:20.400Z,7.00
2022-11-26T00:02:49.486Z,6.90
2022-11-26T00:05:16.920Z,6.90
2022-11-26T00:07:48.232Z,6.90
2022-11-26T00:10:19.627Z,6.80
2022-11-26T00:12:46.402Z,6.80
2022-11-26T00:15:21.130Z,6.80
2022-11-26T00:17:50.702Z,6.80
2022-11-26T00:20:20.634Z,6.70
2022-11-26T00:22:52.185Z,6.80
2022-11-26T00:25:23.749Z,6.80
2022-11-26T00:27:52.343Z,6.70
2022-11-26T00:30:23.510Z,6.70
2022-11-26T00:32:50.072Z,6.70
2022-11-26T00:35:17.177Z,6.70
2022-11-26T00:37:43.794Z,6.70
2022-11-26T00:40:22.396Z,6.60
2022-11-26T00:42:49.395Z,6.60
2022-11-26T00:45:18.953Z,6.60
2022-11-26T00:47:45.654Z,6.70
2022-11-26T00:50:16.152Z,6.60
2022-11-26T00:52:42.759Z,6.70
2022-11-26T00:55:28.232Z,6.70
2022-11-26T00:57:55.092Z,6.70
2022-11-26T01:00:23.948Z,6.70
2022-11-26T01:02:53.325Z,6.60
2022-11-26T01:05:20.560Z,6.60
2022-11-26T01:07:47.444Z,6.60
2022-11-26T01:10:17.419Z,6.60
2022-11-26T01:12:44.177Z,6.60
2022-11-26T01:15:10.995Z,6.60
2022-11-26T01:17:37.567Z,6.50
2022-11-26T01:20:04.470Z,6.50
2022-11-26T01:22:30.980Z,6.50
2022-11-26T01:25:00.022Z,6.50
2022-11-26T01:27:26.781Z,6.50
2022-11-26T01:29:53.295Z,6.50
2022-11-26T01:32:19.855Z,6.50
2022-11-26T01:34:46.406Z,6.50
2022-11-26T01:37:13.976Z,6.40
2022-11-26T01:39:40.612Z,6.40
2022-11-26T01:42:07.131Z,6.40
2022-11-26T01:44:35.210Z,6.40
2022-11-26T01:47:02.451Z,6.40
2022-11-26T01:49:33.250Z,6.40
2022-11-26T01:52:20.839Z,6.40
2022-11-26T01:54:48.756Z,6.30
2022-11-26T01:57:27.012Z,6.30
2022-11-26T01:59:54.909Z,6.30
2022-11-26T02:02:22.991Z,6.30
2022-11-26T02:04:56.214Z,6.30
2022-11-26T02:07:22.736Z,6.30
2022-11-26T02:09:53.965Z,6.20
2022-11-26T02:12:21.035Z,6.20
2022-11-26T02:14:47.658Z,6.20
2022-11-26T02:17:14.510Z,6.20
2022-11-26T02:19:59.664Z,6.20
2022-11-26T02:22:37.150Z,6.10
2022-11-26T02:25:15.809Z,6.10
2022-11-26T02:27:45.262Z,6.00
2022-11-26T02:30:13.425Z,6.00
2022-11-26T02:32:42.868Z,5.90
2022-11-26T02:35:22.656Z,5.80
2022-11-26T02:37:53.673Z,5.90
2022-11-26T02:40:25.949Z,5.70
2022-11-26T02:42:52.553Z,5.80
2022-11-26T02:45:22.696Z,5.80
2022-11-26T02:47:54.933Z,5.70
2022-11-26T02:50:33.055Z,5.80
2022-11-26T02:53:03.241Z,5.70
2022-11-26T02:55:32.229Z,5.70
2022-11-26T02:57:59.020Z,5.70
2022-11-26T03:00:28.214Z,5.60
2022-11-26T03:03:04.230Z,5.70
2022-11-26T03:05:32.409Z,5.70
2022-11-26T03:08:05.284Z,5.60
2022-11-26T03:10:31.856Z,5.60
2022-11-26T03:13:01.640Z,5.60
2022-11-26T03:15:28.200Z,5.60
2022-11-26T03:17:54.721Z,5.60
2022-11-26T03:20:21.248Z,5.50
2022-11-26T03:22:47.786Z,5.50
2022-11-26T03:25:14.443Z,5.50
2022-11-26T03:27:41.031Z,5.50
2022-11-26T03:30:10.248Z,5.40
2022-11-26T03:32:39.479Z,5.40
2022-11-26T03:35:06.091Z,5.30
2022-11-26T03:37:32.633Z,5.30
2022-11-26T03:40:01.703Z,5.30
2022-11-26T03:42:28.344Z,5.30
2022-11-26T03:44:55.106Z,5.30
2022-11-26T03:47:21.754Z,5.30
2022-11-26T03:49:48.321Z,5.20
2022-11-26T03:52:14.944Z,5.30
2022-11-26T03:54:43.633Z,5.30
2022-11-26T03:57:10.367Z,5.30
2022-11-26T03:59:36.944Z,5.30
2022-11-26T04:02:06.142Z,5.30
2022-11-26T04:04:32.747Z,5.30
2022-11-26T04:06:59.270Z,5.30
2022-11-26T04:09:25.872Z,5.30
2022-11-26T04:11:54.857Z,5.30
2022-11-26T04:14:21.500Z,5.30
2022-11-26T04:16:48.122Z,5.30
2022-11-26T04:19:14.645Z,5.20
2022-11-26T04:21:41.149Z,5.20
2022-11-26T04:24:07.834Z,5.20
2022-11-26T04:26:36.656Z,5.20
2022-11-26T04:29:03.634Z,5.20
2022-11-26T04:31:32.800Z,5.20
2022-11-26T04:33:59.468Z,5.20
2022-11-26T04:36:26.043Z,5.20
2022-11-26T04:38:52.694Z,5.20
2022-11-26T04:41:19.306Z,5.10
2022-11-26T04:43:45.857Z,5.00
2022-11-26T04:46:12.438Z,4.90
2022-11-26T04:48:39.041Z,4.90
2022-11-26T04:51:05.707Z,4.90
2022-11-26T04:53:32.299Z,4.80
2022-11-26T04:55:58.914Z,4.80
2022-11-26T04:58:25.504Z,4.80
2022-11-26T05:00:52.190Z,4.80
2022-11-26T05:03:19.023Z,4.70
2022-11-26T05:05:46.602Z,4.70
2022-11-26T05:08:13.136Z,4.70
2022-11-26T05:10:42.206Z,4.70
2022-11-26T05:13:08.770Z,4.70
2022-11-26T05:15:35.368Z,4.70
2022-11-26T05:18:03.016Z,4.60
2022-11-26T05:20:29.561Z,4.60
2022-11-26T05:22:58.320Z,4.60
2022-11-26T05:25:24.871Z,4.70
2022-11-26T05:27:51.455Z,4.60
2022-11-26T05:30:17.998Z,4.60
2022-11-26T05:32:44.669Z,4.60
2022-11-26T05:35:11.203Z,4.60
2022-11-26T05:37:37.783Z,4.60
2022-11-26T05:40:07.877Z,4.50
2022-11-26T05:42:36.959Z,4.50
2022-11-26T05:45:04.089Z,4.50
2022-11-26T05:47:30.600Z,4.50
2022-11-26T05:49:59.675Z,4.40
2022-11-26T05:52:26.273Z,4.40
2022-11-26T05:54:52.875Z,4.50
2022-11-26T05:57:20.155Z,4.40
2022-11-26T05:59:48.409Z,4.40
2022-11-26T06:02:15.333Z,4.40
2022-11-26T06:04:42.165Z,4.30
2022-11-26T06:07:09.218Z,4.30
2022-11-26T06:09:38.435Z,4.40
2022-11-26T06:12:05.366Z,4.40
2022-11-26T06:14:31.948Z,4.50
2022-11-26T06:16:58.695Z,4.40
2022-11-26T06:19:27.538Z,4.50
2022-11-26T06:21:54.049Z,4.50
2022-11-26T06:24:22.862Z,4.50
2022-11-26T06:26:49.417Z,4.50
2022-11-26T06:29:16.282Z,4.40
2022-11-26T06:31:42.934Z,4.40
2022-11-26T06:34:12.048Z,4.40
2022-11-26T06:36:38.638Z,4.40
2022-11-26T06:39:05.311Z,4.40
2022-11-26T06:41:31.848Z,4.40
2022-11-26T06:44:03.072Z,4.40
2022-11-26T06:46:35.610Z,4.40
2022-11-26T06:49:02.770Z,4.50
2022-11-26T06:51:29.736Z,4.40
2022-11-26T06:53:58.748Z,4.40
2022-11-26T06:56:27.682Z,4.40
2022-11-26T06:58:55.181Z,4.40
2022-11-26T07:01:25.503Z,4.40
2022-11-26T07:03:52.514Z,4.50
2022-11-26T07:06:20.451Z,4.40
2022-11-26T07:08:47.485Z,4.50
2022-11-26T07:11:16.647Z,4.40
2022-11-26T07:13:43.193Z,4.40
2022-11-26T07:16:09.738Z,4.40
2022-11-26T07:18:36.690Z,4.40
2022-11-26T07:21:09.764Z,4.30
2022-11-26T07:23:36.706Z,4.30
2022-11-26T07:26:03.835Z,4.30
2022-11-26T07:28:30.407Z,4.30
2022-11-26T07:31:00.851Z,4.30
2022-11-26T07:33:30.807Z,4.30
2022-11-26T07:36:01.246Z,4.30
2022-11-26T07:38:30.444Z,4.30
2022-11-26T07:41:02.945Z,4.30
2022-11-26T07:43:29.475Z,4.30
2022-11-26T07:45:56.104Z,4.30
2022-11-26T07:48:22.722Z,4.30
2022-11-26T07:50:49.282Z,4.30
2022-11-26T07:53:16.131Z,4.30
2022-11-26T07:55:42.825Z,4.40
2022-11-26T07:58:09.326Z,4.40
2022-11-26T08:00:38.363Z,4.40
2022-11-26T08:03:07.143Z,4.50
2022-11-26T08:05:33.650Z,4.50
2022-11-26T08:08:00.359Z,4.50
2022-11-26T08:10:27.058Z,4.50
2022-11-26T08:12:53.696Z,4.60
2022-11-26T08:15:22.621Z,4.50
2022-11-26T08:17:49.224Z,4.60
2022-11-26T08:20:15.841Z,4.60
2022-11-26T08:22:42.440Z,4.60
2022-11-26T08:25:09.283Z,4.60
2022-11-26T08:27:35.874Z,4.70
2022-11-26T08:30:02.893Z,4.70
2022-11-26T08:32:29.445Z,4.70
2022-11-26T08:34:55.979Z,4.70
2022-11-26T08:37:25.054Z,4.70
2022-11-26T08:39:52.677Z,4.70
2022-11-26T08:42:21.525Z,4.80
2022-11-26T08:44:48.038Z,4.90
2022-11-26T08:47:14.576Z,4.90
2022-11-26T08:49:41.100Z,5.00
2022-11-26T08:52:07.620Z,5.00
2022-11-26T08:54:34.147Z,5.00
2022-11-26T08:57:05.615Z,5.10
2022-11-26T08:59:32.147Z,5.10
2022-11-26T09:01:58.741Z,5.10
2022-11-26T09:04:27.846Z,5.10
2022-11-26T09:06:56.584Z,5.20
2022-11-26T09:09:23.156Z,5.20
2022-11-26T09:11:56.418Z,5.20
2022-11-26T09:14:26.918Z,5.20
2022-11-26T09:16:54.237Z,5.20
2022-11-26T09:19:21.486Z,5.20
2022-11-26T09:21:50.427Z,5.20
2022-11-26T09:24:19.798Z,5.30
2022-11-26T09:26:48.814Z,5.30
2022-11-26T09:29:16.923Z,5.20
2022-11-26T09:32:07.470Z,5.30
2022-11-26T09:34:31.140Z,5.30
2022-11-26T09:36:57.724Z,5.30
2022-11-26T09:39:24.267Z,5.30
2022-11-26T09:41:56.859Z,5.40
2022-11-26T09:44:42.218Z,5.40
2022-11-26T09:47:13.029Z,5.50
2022-11-26T09:49:58.389Z,5.50
2022-11-26T09:52:26.627Z,5.50
2022-11-26T09:54:57.718Z,5.60
2022-11-26T09:57:35.360Z,5.60
2022-11-26T10:00:04.829Z,5.70
2022-11-26T10:02:33.845Z,5.70
2022-11-26T10:05:00.399Z,5.70
2022-11-26T10:07:29.398Z,5.80
2022-11-26T10:10:02.145Z,5.90
2022-11-26T10:12:41.568Z,5.90
2022-11-26T10:15:30.226Z,5.90
2022-11-26T10:18:03.023Z,5.90
2022-11-26T10:20:29.581Z,6.00
2022-11-26T10:23:11.172Z,6.00
2022-11-26T10:26:03.969Z,6.10
2022-11-26T10:28:33.313Z,6.10
2022-11-26T10:31:00.981Z,6.10
2022-11-26T10:33:29.153Z,6.10
2022-11-26T10:35:55.685Z,6.10
2022-11-26T10:38:24.437Z,6.10
2022-11-26T10:40:50.936Z,6.10
2022-11-26T10:43:19.182Z,6.10
2022-11-26T10:45:45.712Z,6.10
2022-11-26T10:48:18.997Z,6.20
2022-11-26T10:51:03.386Z,6.20
2022-11-26T10:53:32.278Z,6.20
2022-11-26T10:58:40.438Z,6.20
2022-11-26T11:01:07.932Z,6.30
2022-11-26T11:06:34.718Z,6.30
2022-11-26T11:09:12.160Z,6.30
2022-11-26T11:11:38.700Z,6.30
2022-11-26T11:14:07.588Z,6.40
2022-11-26T11:16:39.655Z,6.40
2022-11-26T11:19:22.578Z,6.40
2022-11-26T11:21:51.880Z,6.30
2022-11-26T11:24:21.215Z,6.40
2022-11-26T11:26:48.799Z,6.40
2022-11-26T11:29:34.772Z,6.40
2022-11-26T11:32:04.416Z,6.30
2022-11-26T11:34:43.088Z,6.40
2022-11-26T11:37:14.842Z,6.40
2022-11-26T11:39:44.311Z,6.40
2022-11-26T11:42:28.193Z,6.40
2022-11-26T11:44:55.222Z,6.50
2022-11-26T11:47:29.748Z,6.40
2022-11-26T11:50:14.725Z,6.50
2022-11-26T11:53:00.686Z,6.50
2022-11-26T11:55:38.730Z,6.50
2022-11-26T11:58:05.272Z,6.50
2022-11-26T12:00:34.646Z,6.50
2022-11-26T12:03:15.421Z,6.50
2022-11-26T12:06:01.022Z,6.50
2022-11-26T12:08:40.834Z,6.50
2022-11-26T12:11:12.619Z,6.50
2022-11-26T12:13:51.341Z,6.60
2022-11-26T12:16:24.097Z,6.60
2022-11-26T12:18:56.537Z,6.60
2022-11-26T12:21:43.310Z,6.60
2022-11-26T12:24:13.004Z,6.70
2022-11-26T12:26:42.596Z,6.70
2022-11-26T12:29:16.200Z,6.70
2022-11-26T12:31:51.235Z,6.70
2022-11-26T12:34:21.213Z,6.70
2022-11-26T12:37:12.973Z,6.70
2022-11-26T12:39:39.457Z,6.70
2022-11-26T12:42:24.665Z,6.80
2022-11-26T12:44:52.323Z,6.80
2022-11-26T12:47:28.400Z,6.80
2022-11-26T12:50:13.800Z,6.80
2022-11-26T12:52:58.832Z,6.80
2022-11-26T12:55:46.106Z,6.80
2022-11-26T12:58:15.695Z,6.80
2022-11-26T13:00:42.425Z,6.80
2022-11-26T13:03:15.907Z,6.80
2022-11-26T13:05:57.184Z,6.80
2022-11-26T13:08:26.424Z,6.90
2022-11-26T13:11:08.685Z,6.90
2022-11-26T13:13:55.128Z,6.90
2022-11-26T13:16:24.541Z,6.90
2022-11-26T13:18:54.159Z,6.90
2022-11-26T13:21:29.887Z,6.90
2022-11-26T13:24:07.288Z,6.90
2022-11-26T13:26:36.599Z,6.90
2022-11-26T13:29:09.087Z,6.80
2022-11-26T13:31:44.580Z,6.80
2022-11-26T13:34:29.968Z,6.80
2022-11-26T13:36:56.517Z,6.80
2022-11-26T13:39:29.068Z,6.80
2022-11-26T13:42:16.576Z,6.80
2022-11-26T13:44:51.167Z,6.80
2022-11-26T13:47:23.217Z,6.90
2022-11-26T13:49:57.838Z,6.90
2022-11-26T13:52:39.864Z,6.90
2022-11-26T13:55:10.960Z,6.90
2022-11-26T13:57:42.938Z,6.80
2022-11-26T14:00:09.910Z,6.80
2022-11-26T14:02:41.911Z,6.90
2022-11-26T14:05:13.240Z,6.90
2022-11-26T14:07:40.524Z,6.90
2022-11-26T14:10:11.980Z,6.90
2022-11-26T14:12:59.688Z,6.90
2022-11-26T14:15:43.811Z,6.90
2022-11-26T14:18:11.400Z,6.90
2022-11-26T14:20:56.854Z,6.90
2022-11-26T14:23:43.744Z,6.90
2022-11-26T14:26:11.148Z,6.90
2022-11-26T14:28:37.673Z,6.90
2022-11-26T14:31:13.311Z,6.90
2022-11-26T14:33:44.760Z,6.90
2022-11-26T14:36:22.015Z,6.90
2022-11-26T14:39:18.167Z,6.90
2022-11-26T14:41:47.629Z,6.90
2022-11-26T14:44:15.653Z,6.90
2022-11-26T14:46:46.433Z,6.90
2022-11-26T14:49:30.524Z,6.90
2022-11-26T14:51:58.005Z,6.90
2022-11-26T14:54:29.637Z,6.90
2022-11-26T14:57:00.076Z,6.90
2022-11-26T14:59:26.644Z,6.90
2022-11-26T15:01:53.232Z,6.90
2022-11-26T15:04:27.918Z,6.90
2022-11-26T15:06:54.520Z,6.90
2022-11-26T15:09:25.471Z,7.00
2022-11-26T15:11:59.483Z,7.00
2022-11-26T15:14:39.269Z,7.00
2022-11-26T15:17:06.602Z,7.10
2022-11-26T15:19:35.558Z,7.10
2022-11-26T15:22:04.858Z,7.10
2022-11-26T15:24:31.441Z,7.10
2022-11-26T15:26:57.979Z,7.10
2022-11-26T15:29:32.361Z,7.10
2022-11-26T15:31:59.424Z,7.10
2022-11-26T15:34:26.601Z,7.10
2022-11-26T15:36:53.298Z,7.10
2022-11-26T15:39:29.388Z,7.10
2022-11-26T15:41:58.455Z,7.10
2022-11-26T15:44:26.222Z,7.10
2022-11-26T15:46:53.648Z,7.10
2022-11-26T15:49:33.270Z,7.10
2022-11-26T15:52:01.648Z,7.10
2022-11-26T15:54:43.434Z,7.10
2022-11-26T15:57:21.959Z,7.10
2022-11-26T15:59:50.929Z,7.10
2022-11-26T16:02:19.089Z,7.10
2022-11-26T16:04:48.448Z,7.20
2022-11-26T16:07:17.351Z,7.20
2022-11-26T16:09:45.239Z,7.20
2022-11-26T16:12:30.420Z,7.20
2022-11-26T16:15:10.151Z,7.20
2022-11-26T16:17:38.994Z,7.10
2022-11-26T16:20:05.920Z,7.10
2022-11-26T16:22:35.351Z,7.20
2022-11-26T16:25:02.597Z,7.20
2022-11-26T16:27:32.030Z,7.20
2022-11-26T16:30:01.412Z,7.20
2022-11-26T16:32:28.206Z,7.20
2022-11-26T16:34:54.789Z,7.20
2022-11-26T16:37:21.327Z,7.20
2022-11-26T16:39:48.612Z,7.20
2022-11-26T16:42:20.340Z,7.30
2022-11-26T16:44:47.332Z,7.20
2022-11-26T16:47:16.952Z,7.20
2022-11-26T16:49:43.552Z,7.20
2022-11-26T16:52:11.923Z,7.20
2022-11-26T16:54:41.156Z,7.20
2022-11-26T16:57:13.406Z,7.20
2022-11-26T16:59:40.599Z,7.20
2022-11-26T17:02:18.096Z,7.20
2022-11-26T17:04:47.219Z,7.30
2022-11-26T17:07:17.483Z,7.30
2022-11-26T17:09:44.121Z,7.30
2022-11-26T17:12:17.089Z,7.30
2022-11-26T17:14:44.117Z,7.30
2022-11-26T17:17:14.408Z,7.30
2022-11-26T17:19:42.527Z,7.30
2022-11-26T17:22:09.727Z,7.30
2022-11-26T17:24:36.850Z,7.30
2022-11-26T17:27:04.651Z,7.30
2022-11-26T17:29:32.086Z,7.30
2022-11-26T17:32:01.208Z,7.30
2022-11-26T17:34:27.843Z,7.30
2022-11-26T17:36:56.407Z,7.30
2022-11-26T17:39:25.097Z,7.30
2022-11-26T17:41:51.655Z,7.30
2022-11-26T17:44:20.362Z,7.30
2022-11-26T17:47:16.350Z,7.30
2022-11-26T17:49:39.058Z,7.30
2022-11-26T17:52:08.223Z,7.30
2022-11-26T17:54:34.892Z,7.20
2022-11-26T17:57:01.732Z,7.20
2022-11-26T17:59:28.270Z,7.20
2022-11-26T18:01:55.135Z,7.20
2022-11-26T18:04:24.356Z,7.20
2022-11-26T18:07:01.028Z,7.20
2022-11-26T18:09:29.950Z,7.10
2022-11-26T18:11:57.100Z,7.20
2022-11-26T18:14:23.636Z,7.10
2022-11-26T18:16:50.492Z,7.20
2022-11-26T18:19:20.553Z,7.20
2022-11-26T18:21:48.526Z,7.20
2022-11-26T18:24:17.725Z,7.20
2022-11-26T18:26:44.544Z,7.20
2022-11-26T18:29:11.338Z,7.20
2022-11-26T18:31:39.706Z,7.20
2022-11-26T18:34:09.022Z,7.20
2022-11-26T18:36:35.672Z,7.20
2022-11-26T18:39:03.455Z,7.10
2022-11-26T18:41:30.055Z,7.10
2022-11-26T18:43:56.596Z,7.10
2022-11-26T18:46:25.359Z,7.10
2022-11-26T18:48:52.030Z,7.10
2022-11-26T18:51:18.716Z,7.10
2022-11-26T18:53:48.788Z,7.10
2022-11-26T18:56:22.656Z,7.10
2022-11-26T18:58:51.762Z,7.10
2022-11-26T19:01:29.012Z,7.10
2022-11-26T19:03:56.528Z,7.10
2022-11-26T19:06:27.015Z,7.10
2022-11-26T19:09:01.115Z,7.00
2022-11-26T19:11:28.775Z,7.00
2022-11-26T19:13:56.448Z,6.90
2022-11-26T19:16:23.700Z,6.90
2022-11-26T19:18:50.351Z,6.90
2022-11-26T19:21:18.725Z,6.90
2022-11-26T19:23:45.657Z,6.90
2022-11-26T19:26:12.186Z,6.90
2022-11-26T19:28:38.786Z,6.90
2022-11-26T19:31:10.271Z,7.00
2022-11-26T19:33:37.117Z,7.00
2022-11-26T19:36:04.937Z,6.90
2022-11-26T19:38:34.291Z,7.00
2022-11-26T19:41:01.598Z,7.00
2022-11-26T19:43:31.352Z,7.00
2022-11-26T19:46:05.125Z,7.00
2022-11-26T19:48:32.423Z,7.10
2022-11-26T19:50:59.140Z,7.10
2022-11-26T19:53:28.233Z,7.10
2022-11-26T19:56:00.999Z,7.10
2022-11-26T19:58:28.183Z,7.10
2022-11-26T20:00:54.948Z,7.10
2022-11-26T20:03:22.047Z,7.10
2022-11-26T20:05:51.515Z,7.10
2022-11-26T20:08:18.299Z,7.10
2022-11-26T20:10:49.746Z,7.10
2022-11-26T20:13:16.757Z,7.10
2022-11-26T20:15:47.422Z,7.10
2022-11-26T20:18:18.616Z,7.10
2022-11-26T20:20:56.291Z,7.10
2022-11-26T20:23:22.854Z,7.10
2022-11-26T20:25:49.382Z,7.10
2022-11-26T20:28:15.905Z,7.10
2022-11-26T20:30:42.537Z,7.10
2022-11-26T20:33:09.151Z,7.10
2022-11-26T20:35:39.253Z,7.10
2022-11-26T20:38:05.935Z,7.10
2022-11-26T20:40:32.479Z,7.10
2022-11-26T20:42:59.082Z,7.10
2022-11-26T20:45:26.176Z,7.10
2022-11-26T20:47:54.956Z,7.10
2022-11-26T20:50:21.770Z,7.10
2022-11-26T20:52:48.325Z,7.10
2022-11-26T20:55:18.059Z,7.10
2022-11-26T20:57:44.603Z,7.10
2022-11-26T21:00:11.373Z,7.10
2022-11-26T21:02:37.951Z,7.10
2022-11-26T21:05:04.689Z,7.10
2022-11-26T21:07:31.353Z,7.10
2022-11-26T21:09:58.936Z,7.10
2022-11-26T21:12:25.523Z,7.20
2022-11-26T21:14:52.402Z,7.20
2022-11-26T21:17:21.314Z,7.20
2022-11-26T21:19:47.949Z,7.10
2022-11-26T21:22:14.497Z,7.20
2022-11-26T21:24:41.053Z,7.20
2022-11-26T21:27:10.067Z,7.20
2022-11-26T21:29:39.364Z,7.20
2022-11-26T21:32:09.080Z,7.10
2022-11-26T21:34:35.694Z,7.20
2022-11-26T21:37:04.491Z,7.20
2022-11-26T21:39:33.235Z,7.20
2022-11-26T21:42:02.248Z,7.20
2022-11-26T21:44:30.952Z,7.20
2022-11-26T21:46:57.732Z,7.20
2022-11-26T21:49:27.961Z,7.20
2022-11-26T21:51:57.005Z,7.20
2022-11-26T21:54:23.964Z,7.20
2022-11-26T21:56:50.477Z,7.20
2022-11-26T21:59:17.003Z,7.20
2022-11-26T22:01:45.057Z,7.20
2022-11-26T22:04:17.946Z,7.20
2022-11-26T22:06:45.481Z,7.20
2022-11-26T22:09:12.477Z,7.20
2022-11-26T22:11:40.325Z,7.20
2022-11-26T22:14:07.687Z,7.10
2022-11-26T22:16:34.286Z,7.10
2022-11-26T22:19:01.507Z,7.10
2022-11-26T22:21:32.333Z,7.10
2022-11-26T22:23:59.792Z,7.10
2022-11-26T22:26:29.365Z,7.00
2022-11-26T22:28:58.428Z,7.00
2022-11-26T22:31:26.999Z,7.00
2022-11-26T22:33:54.711Z,7.10
2022-11-26T22:36:23.582Z,7.10
2022-11-26T22:38:52.641Z,7.10
2022-11-26T22:41:19.403Z,7.10
2022-11-26T22:43:46.015Z,7.10
2022-11-26T22:46:14.336Z,7.10
2022-11-26T22:48:43.685Z,7.10
2022-11-26T22:51:10.289Z,7.10
2022-11-26T22:53:36.982Z,7.10
2022-11-26T22:56:03.924Z,7.10
2022-11-26T22:58:31.137Z,7.10
2022-11-26T23:00:59.317Z,7.10
2022-11-26T23:03:29.306Z,7.20
2022-11-26T23:05:58.251Z,7.10
2022-11-26T23:08:24.798Z,7.20
2022-11-26T23:10:51.344Z,7.20
2022-11-26T23:13:18.168Z,7.20
2022-11-26T23:15:45.577Z,7.20
2022-11-26T23:18:12.892Z,7.20
2022-11-26T23:20:39.605Z,7.10
2022-11-26T23:23:08.976Z,7.10
2022-11-26T23:25:41.452Z,7.10
2022-11-26T23:28:08.117Z,7.10
2022-11-26T23:30:37.000Z,7.10
2022-11-26T23:33:03.616Z,7.10
2022-11-26T23:35:30.154Z,7.20
2022-11-26T23:37:56.655Z,7.20
2022-11-26T23:40:23.169Z,7.20
2022-11-26T23:42:51.996Z,7.10
2022-11-26T23:45:18.668Z,7.10
2022-11-26T23:47:45.243Z,7.10
2022-11-26T23:50:12.108Z,7.10
2022-11-26T23:52:38.764Z,7.10
2022-11-26T23:55:05.451Z,7.00
2022-11-26T23:57:32.013Z,7.00
